sensor_id;sensor_type;location;lat;lon;timestamp;P1;durP1;ratioP1;P2;durP2;ratioP2
15398;SDS011;7797;51.428;6.756;2024-03-29T00:02:03;2.03;;;0.77;;
15398;SDS011;7797;51.428;6.756;2024-03-29T00:04:29;2.47;;;1.10;;
15398;SDS011;7797;51.428;6.756;2024-03-29T00:06:55;1.80;;;0.90;;
15398;SDS011;7797;51.428;6.756;2024-03-29T00:09:20;0.70;;;0.70;;
15398;SDS011;7797;51.428;6.756;2024-03-29T00:11:46;1.47;;;1.27;;
15398;SDS011;7797;51.428;6.756;2024-03-29T00:14:12;1.43;;;1.20;;
15398;SDS011;7797;51.428;6.756;2024-03-29T00:16:37;1.47;;;0.90;;
15398;SDS011;7797;51.428;6.756;2024-03-29T00:19:03;1.90;;;0.90;;
15398;SDS011;7797;51.428;6.756;2024-03-29T00:21:29;2.10;;;1.00;;
15398;SDS011;7797;51.428;6.756;2024-03-29T00:23:54;2.07;;;0.60;;
15398;SDS011;7797;51.428;6.756;2024-03-29T00:26:20;1.73;;;0.77;;
15398;SDS011;7797;51.428;6.756;2024-03-29T00:28:45;2.10;;;1.00;;
15398;SDS011;7797;51.428;6.756;2024-03-29T00:31:11;1.67;;;0.97;;
15398;SDS011;7797;51.428;6.756;2024-03-29T00:33:37;2.67;;;0.93;;
15398;SDS011;7797;51.428;6.756;2024-03-29T00:36:03;1.07;;;0.83;;
15398;SDS011;7797;51.428;6.756;2024-03-29T00:38:29;1.13;;;0.80;;
15398;SDS011;7797;51.428;6.756;2024-03-29T00:40:54;1.83;;;1.00;;
15398;SDS011;7797;51.428;6.756;2024-03-29T00:43:20;2.47;;;0.77;;
15398;SDS011;7797;51.428;6.756;2024-03-29T00:45:46;1.00;;;0.90;;
15398;SDS011;7797;51.428;6.756;2024-03-29T00:48:11;1.07;;;0.80;;
15398;SDS011;7797;51.428;6.756;2024-03-29T00:50:40;3.63;;;1.20;;
15398;SDS011;7797;51.428;6.756;2024-03-29T00:53:05;2.00;;;0.77;;
15398;SDS011;7797;51.428;6.756;2024-03-29T00:55:31;1.30;;;0.80;;
15398;SDS011;7797;51.428;6.756;2024-03-29T00:57:57;2.03;;;1.30;;
15398;SDS011;7797;51.428;6.756;2024-03-29T01:00:22;1.13;;;0.90;;
15398;SDS011;7797;51.428;6.756;2024-03-29T01:02:48;1.97;;;1.03;;
15398;SDS011;7797;51.428;6.756;2024-03-29T01:05:13;0.80;;;0.60;;
15398;SDS011;7797;51.428;6.756;2024-03-29T01:07:42;1.30;;;0.80;;
15398;SDS011;7797;51.428;6.756;2024-03-29T01:10:08;2.80;;;1.07;;
15398;SDS011;7797;51.428;6.756;2024-03-29T01:12:34;2.53;;;0.83;;
15398;SDS011;7797;51.428;6.756;2024-03-29T01:15:01;2.47;;;0.87;;
15398;SDS011;7797;51.428;6.756;2024-03-29T01:17:28;3.50;;;0.97;;
15398;SDS011;7797;51.428;6.756;2024-03-29T01:19:54;2.10;;;0.90;;
15398;SDS011;7797;51.428;6.756;2024-03-29T01:22:19;1.60;;;0.70;;
15398;SDS011;7797;51.428;6.756;2024-03-29T01:24:45;2.40;;;1.07;;
15398;SDS011;7797;51.428;6.756;2024-03-29T01:27:11;1.40;;;0.90;;
15398;SDS011;7797;51.428;6.756;2024-03-29T01:29:36;1.90;;;0.90;;
15398;SDS011;7797;51.428;6.756;2024-03-29T01:32:03;2.27;;;0.87;;
15398;SDS011;7797;51.428;6.756;2024-03-29T01:34:29;1.60;;;1.03;;
15398;SDS011;7797;51.428;6.756;2024-03-29T01:36:54;1.17;;;0.70;;
15398;SDS011;7797;51.428;6.756;2024-03-29T01:39:20;1.37;;;1.00;;
15398;SDS011;7797;51.428;6.756;2024-03-29T01:41:50;1.00;;;1.00;;
15398;SDS011;7797;51.428;6.756;2024-03-29T01:44:15;1.60;;;1.00;;
15398;SDS011;7797;51.428;6.756;2024-03-29T01:46:41;2.93;;;0.80;;
15398;SDS011;7797;51.428;6.756;2024-03-29T01:49:07;1.70;;;0.90;;
15398;SDS011;7797;51.428;6.756;2024-03-29T01:51:35;0.70;;;0.70;;
15398;SDS011;7797;51.428;6.756;2024-03-29T01:54:02;0.90;;;0.63;;
15398;SDS011;7797;51.428;6.756;2024-03-29T01:56:28;1.33;;;0.80;;
15398;SDS011;7797;51.428;6.756;2024-03-29T01:58:54;1.20;;;0.80;;
15398;SDS011;7797;51.428;6.756;2024-03-29T02:01:20;0.57;;;0.57;;
15398;SDS011;7797;51.428;6.756;2024-03-29T02:03:46;1.97;;;0.83;;
15398;SDS011;7797;51.428;6.756;2024-03-29T02:06:12;0.87;;;0.60;;
15398;SDS011;7797;51.428;6.756;2024-03-29T02:08:39;1.50;;;0.70;;
15398;SDS011;7797;51.428;6.756;2024-03-29T02:11:04;2.60;;;1.10;;
15398;SDS011;7797;51.428;6.756;2024-03-29T02:13:30;2.47;;;1.10;;
15398;SDS011;7797;51.428;6.756;2024-03-29T02:15:57;1.70;;;0.90;;
15398;SDS011;7797;51.428;6.756;2024-03-29T02:18:23;1.47;;;0.93;;
15398;SDS011;7797;51.428;6.756;2024-03-29T02:20:49;0.67;;;0.50;;
15398;SDS011;7797;51.428;6.756;2024-03-29T02:23:16;2.17;;;1.00;;
15398;SDS011;7797;51.428;6.756;2024-03-29T02:25:44;2.23;;;0.80;;
15398;SDS011;7797;51.428;6.756;2024-03-29T02:28:09;1.80;;;0.90;;
15398;SDS011;7797;51.428;6.756;2024-03-29T02:30:35;2.60;;;0.70;;
15398;SDS011;7797;51.428;6.756;2024-03-29T02:33:01;2.40;;;1.07;;
15398;SDS011;7797;51.428;6.756;2024-03-29T02:35:28;1.73;;;0.60;;
15398;SDS011;7797;51.428;6.756;2024-03-29T02:37:54;0.70;;;0.50;;
15398;SDS011;7797;51.428;6.756;2024-03-29T02:40:20;1.30;;;0.70;;
15398;SDS011;7797;51.428;6.756;2024-03-29T02:42:47;0.73;;;0.73;;
15398;SDS011;7797;51.428;6.756;2024-03-29T02:45:13;1.80;;;0.77;;
15398;SDS011;7797;51.428;6.756;2024-03-29T02:47:39;0.60;;;0.60;;
15398;SDS011;7797;51.428;6.756;2024-03-29T02:50:05;0.90;;;0.90;;
15398;SDS011;7797;51.428;6.756;2024-03-29T02:52:31;1.83;;;1.00;;
15398;SDS011;7797;51.428;6.756;2024-03-29T02:54:57;1.43;;;0.70;;
15398;SDS011;7797;51.428;6.756;2024-03-29T02:57:22;0.97;;;0.50;;
15398;SDS011;7797;51.428;6.756;2024-03-29T02:59:48;3.43;;;0.93;;
15398;SDS011;7797;51.428;6.756;2024-03-29T03:02:14;0.90;;;0.67;;
15398;SDS011;7797;51.428;6.756;2024-03-29T03:04:39;1.77;;;0.80;;
15398;SDS011;7797;51.428;6.756;2024-03-29T03:07:05;1.27;;;0.70;;
15398;SDS011;7797;51.428;6.756;2024-03-29T03:09:49;0.80;;;0.80;;
15398;SDS011;7797;51.428;6.756;2024-03-29T03:12:34;1.33;;;1.00;;
15398;SDS011;7797;51.428;6.756;2024-03-29T03:14:59;0.80;;;0.80;;
15398;SDS011;7797;51.428;6.756;2024-03-29T03:17:28;1.30;;;1.20;;
15398;SDS011;7797;51.428;6.756;2024-03-29T03:19:54;1.93;;;1.20;;
15398;SDS011;7797;51.428;6.756;2024-03-29T03:22:19;0.80;;;0.80;;
15398;SDS011;7797;51.428;6.756;2024-03-29T03:24:45;1.40;;;0.57;;
15398;SDS011;7797;51.428;6.756;2024-03-29T03:27:11;1.80;;;0.93;;
15398;SDS011;7797;51.428;6.756;2024-03-29T03:29:36;1.67;;;0.90;;
15398;SDS011;7797;51.428;6.756;2024-03-29T03:32:02;2.17;;;0.60;;
15398;SDS011;7797;51.428;6.756;2024-03-29T03:34:28;1.97;;;0.90;;
15398;SDS011;7797;51.428;6.756;2024-03-29T03:36:54;1.03;;;0.60;;
15398;SDS011;7797;51.428;6.756;2024-03-29T03:39:20;1.47;;;0.80;;
15398;SDS011;7797;51.428;6.756;2024-03-29T03:41:45;2.60;;;0.77;;
15398;SDS011;7797;51.428;6.756;2024-03-29T03:44:12;1.03;;;1.00;;
15398;SDS011;7797;51.428;6.756;2024-03-29T03:46:37;0.93;;;0.93;;
15398;SDS011;7797;51.428;6.756;2024-03-29T03:49:03;1.70;;;0.80;;
15398;SDS011;7797;51.428;6.756;2024-03-29T03:51:28;2.17;;;0.80;;
15398;SDS011;7797;51.428;6.756;2024-03-29T03:53:54;2.10;;;0.97;;
15398;SDS011;7797;51.428;6.756;2024-03-29T03:56:20;1.50;;;0.63;;
15398;SDS011;7797;51.428;6.756;2024-03-29T03:58:45;0.87;;;0.60;;
15398;SDS011;7797;51.428;6.756;2024-03-29T04:01:11;0.70;;;0.70;;
15398;SDS011;7797;51.428;6.756;2024-03-29T04:03:37;1.13;;;1.03;;
15398;SDS011;7797;51.428;6.756;2024-03-29T04:06:05;1.63;;;0.80;;
15398;SDS011;7797;51.428;6.756;2024-03-29T04:08:31;2.33;;;0.97;;
15398;SDS011;7797;51.428;6.756;2024-03-29T04:10:57;1.50;;;1.30;;
15398;SDS011;7797;51.428;6.756;2024-03-29T04:13:22;1.70;;;0.80;;
15398;SDS011;7797;51.428;6.756;2024-03-29T04:15:48;0.60;;;0.60;;
15398;SDS011;7797;51.428;6.756;2024-03-29T04:18:14;2.23;;;1.10;;
15398;SDS011;7797;51.428;6.756;2024-03-29T04:20:39;0.63;;;0.63;;
15398;SDS011;7797;51.428;6.756;2024-03-29T04:23:05;0.83;;;0.73;;
15398;SDS011;7797;51.428;6.756;2024-03-29T04:25:31;2.27;;;1.00;;
15398;SDS011;7797;51.428;6.756;2024-03-29T04:27:58;1.83;;;1.20;;
15398;SDS011;7797;51.428;6.756;2024-03-29T04:30:24;1.50;;;1.10;;
15398;SDS011;7797;51.428;6.756;2024-03-29T04:32:49;0.93;;;0.83;;
15398;SDS011;7797;51.428;6.756;2024-03-29T04:35:15;1.70;;;1.27;;
15398;SDS011;7797;51.428;6.756;2024-03-29T04:37:41;1.60;;;1.03;;
15398;SDS011;7797;51.428;6.756;2024-03-29T04:40:06;1.43;;;0.67;;
15398;SDS011;7797;51.428;6.756;2024-03-29T04:42:32;1.33;;;0.70;;
15398;SDS011;7797;51.428;6.756;2024-03-29T04:44:58;2.00;;;0.90;;
15398;SDS011;7797;51.428;6.756;2024-03-29T04:47:24;1.97;;;0.70;;
15398;SDS011;7797;51.428;6.756;2024-03-29T04:49:49;0.80;;;0.80;;
15398;SDS011;7797;51.428;6.756;2024-03-29T04:52:15;0.77;;;0.73;;
15398;SDS011;7797;51.428;6.756;2024-03-29T04:54:40;2.40;;;0.80;;
15398;SDS011;7797;51.428;6.756;2024-03-29T04:57:06;1.50;;;1.03;;
15398;SDS011;7797;51.428;6.756;2024-03-29T04:59:32;0.90;;;0.80;;
15398;SDS011;7797;51.428;6.756;2024-03-29T05:01:58;0.87;;;0.80;;
15398;SDS011;7797;51.428;6.756;2024-03-29T05:04:24;1.80;;;0.87;;
15398;SDS011;7797;51.428;6.756;2024-03-29T05:06:54;1.40;;;1.00;;
15398;SDS011;7797;51.428;6.756;2024-03-29T05:09:20;2.73;;;0.90;;
15398;SDS011;7797;51.428;6.756;2024-03-29T05:11:46;1.37;;;1.00;;
15398;SDS011;7797;51.428;6.756;2024-03-29T05:14:13;1.10;;;0.80;;
15398;SDS011;7797;51.428;6.756;2024-03-29T05:16:43;1.10;;;1.00;;
15398;SDS011;7797;51.428;6.756;2024-03-29T05:19:11;1.30;;;0.83;;
15398;SDS011;7797;51.428;6.756;2024-03-29T05:21:37;0.80;;;0.77;;
15398;SDS011;7797;51.428;6.756;2024-03-29T05:24:02;1.43;;;1.10;;
15398;SDS011;7797;51.428;6.756;2024-03-29T05:26:28;1.63;;;1.30;;
15398;SDS011;7797;51.428;6.756;2024-03-29T05:28:54;2.53;;;1.60;;
15398;SDS011;7797;51.428;6.756;2024-03-29T05:31:22;2.30;;;1.53;;
15398;SDS011;7797;51.428;6.756;2024-03-29T05:33:48;2.30;;;1.07;;
15398;SDS011;7797;51.428;6.756;2024-03-29T05:36:14;1.03;;;0.97;;
15398;SDS011;7797;51.428;6.756;2024-03-29T05:38:39;1.47;;;1.17;;
15398;SDS011;7797;51.428;6.756;2024-03-29T05:41:05;2.07;;;1.37;;
15398;SDS011;7797;51.428;6.756;2024-03-29T05:43:31;1.47;;;1.10;;
15398;SDS011;7797;51.428;6.756;2024-03-29T05:45:57;2.53;;;1.00;;
15398;SDS011;7797;51.428;6.756;2024-03-29T05:48:23;1.77;;;1.10;;
15398;SDS011;7797;51.428;6.756;2024-03-29T05:50:49;1.73;;;1.10;;
15398;SDS011;7797;51.428;6.756;2024-03-29T05:53:15;1.63;;;1.30;;
15398;SDS011;7797;51.428;6.756;2024-03-29T05:55:40;1.50;;;1.00;;
15398;SDS011;7797;51.428;6.756;2024-03-29T05:58:06;1.90;;;1.17;;
15398;SDS011;7797;51.428;6.756;2024-03-29T06:00:32;3.33;;;1.10;;
15398;SDS011;7797;51.428;6.756;2024-03-29T06:03:01;2.03;;;0.93;;
15398;SDS011;7797;51.428;6.756;2024-03-29T06:05:30;2.37;;;0.90;;
15398;SDS011;7797;51.428;6.756;2024-03-29T06:07:56;4.03;;;1.10;;
15398;SDS011;7797;51.428;6.756;2024-03-29T06:10:21;2.97;;;1.30;;
15398;SDS011;7797;51.428;6.756;2024-03-29T06:12:47;1.77;;;1.27;;
15398;SDS011;7797;51.428;6.756;2024-03-29T06:15:13;1.30;;;1.00;;
15398;SDS011;7797;51.428;6.756;2024-03-29T06:17:57;1.80;;;0.97;;
15398;SDS011;7797;51.428;6.756;2024-03-29T06:20:23;2.50;;;1.20;;
15398;SDS011;7797;51.428;6.756;2024-03-29T06:22:49;1.83;;;1.10;;
15398;SDS011;7797;51.428;6.756;2024-03-29T06:25:15;3.10;;;1.17;;
15398;SDS011;7797;51.428;6.756;2024-03-29T06:27:40;2.00;;;1.10;;
15398;SDS011;7797;51.428;6.756;2024-03-29T06:30:08;2.13;;;1.03;;
15398;SDS011;7797;51.428;6.756;2024-03-29T06:32:34;1.90;;;1.30;;
15398;SDS011;7797;51.428;6.756;2024-03-29T06:35:01;1.00;;;1.00;;
15398;SDS011;7797;51.428;6.756;2024-03-29T06:37:27;0.87;;;0.87;;
15398;SDS011;7797;51.428;6.756;2024-03-29T06:39:53;1.40;;;1.20;;
15398;SDS011;7797;51.428;6.756;2024-03-29T06:42:19;2.87;;;1.13;;
15398;SDS011;7797;51.428;6.756;2024-03-29T06:44:44;1.63;;;1.10;;
15398;SDS011;7797;51.428;6.756;2024-03-29T06:47:10;2.20;;;1.10;;
15398;SDS011;7797;51.428;6.756;2024-03-29T06:49:36;3.07;;;1.27;;
15398;SDS011;7797;51.428;6.756;2024-03-29T06:52:02;2.30;;;0.97;;
15398;SDS011;7797;51.428;6.756;2024-03-29T06:54:28;1.03;;;0.90;;
15398;SDS011;7797;51.428;6.756;2024-03-29T06:56:54;2.47;;;1.20;;
15398;SDS011;7797;51.428;6.756;2024-03-29T06:59:20;2.17;;;1.20;;
15398;SDS011;7797;51.428;6.756;2024-03-29T07:01:46;1.77;;;1.30;;
15398;SDS011;7797;51.428;6.756;2024-03-29T07:04:21;2.43;;;1.20;;
15398;SDS011;7797;51.428;6.756;2024-03-29T07:06:48;2.67;;;1.30;;
15398;SDS011;7797;51.428;6.756;2024-03-29T07:09:16;1.53;;;1.20;;
15398;SDS011;7797;51.428;6.756;2024-03-29T07:11:43;1.73;;;1.20;;
15398;SDS011;7797;51.428;6.756;2024-03-29T07:14:10;1.37;;;1.23;;
15398;SDS011;7797;51.428;6.756;2024-03-29T07:16:35;1.20;;;1.10;;
15398;SDS011;7797;51.428;6.756;2024-03-29T07:19:01;1.33;;;1.20;;
15398;SDS011;7797;51.428;6.756;2024-03-29T07:21:28;1.33;;;0.90;;
15398;SDS011;7797;51.428;6.756;2024-03-29T07:23:53;2.73;;;1.20;;
15398;SDS011;7797;51.428;6.756;2024-03-29T07:26:19;3.77;;;1.30;;
15398;SDS011;7797;51.428;6.756;2024-03-29T07:28:45;1.17;;;1.00;;
15398;SDS011;7797;51.428;6.756;2024-03-29T07:31:10;1.80;;;1.20;;
15398;SDS011;7797;51.428;6.756;2024-03-29T07:33:36;1.03;;;1.03;;
15398;SDS011;7797;51.428;6.756;2024-03-29T07:36:02;2.27;;;1.37;;
15398;SDS011;7797;51.428;6.756;2024-03-29T07:38:29;2.83;;;1.40;;
15398;SDS011;7797;51.428;6.756;2024-03-29T07:40:55;1.50;;;1.40;;
15398;SDS011;7797;51.428;6.756;2024-03-29T07:43:24;1.63;;;1.53;;
15398;SDS011;7797;51.428;6.756;2024-03-29T07:45:50;2.70;;;1.80;;
15398;SDS011;7797;51.428;6.756;2024-03-29T07:48:16;4.40;;;1.57;;
15398;SDS011;7797;51.428;6.756;2024-03-29T07:50:43;1.83;;;1.47;;
15398;SDS011;7797;51.428;6.756;2024-03-29T07:53:09;1.80;;;1.30;;
15398;SDS011;7797;51.428;6.756;2024-03-29T07:55:35;2.33;;;1.40;;
15398;SDS011;7797;51.428;6.756;2024-03-29T07:58:02;2.43;;;1.53;;
15398;SDS011;7797;51.428;6.756;2024-03-29T08:00:30;1.93;;;1.33;;
15398;SDS011;7797;51.428;6.756;2024-03-29T08:02:56;3.37;;;1.53;;
15398;SDS011;7797;51.428;6.756;2024-03-29T08:05:22;1.50;;;1.40;;
15398;SDS011;7797;51.428;6.756;2024-03-29T08:07:47;2.00;;;1.20;;
15398;SDS011;7797;51.428;6.756;2024-03-29T08:10:13;2.30;;;1.63;;
15398;SDS011;7797;51.428;6.756;2024-03-29T08:12:39;1.97;;;1.50;;
15398;SDS011;7797;51.428;6.756;2024-03-29T08:15:04;2.47;;;1.27;;
15398;SDS011;7797;51.428;6.756;2024-03-29T08:17:30;1.77;;;1.50;;
15398;SDS011;7797;51.428;6.756;2024-03-29T08:19:56;1.50;;;1.20;;
15398;SDS011;7797;51.428;6.756;2024-03-29T08:22:22;1.50;;;1.40;;
15398;SDS011;7797;51.428;6.756;2024-03-29T08:24:47;2.67;;;1.43;;
15398;SDS011;7797;51.428;6.756;2024-03-29T08:27:13;1.93;;;1.50;;
15398;SDS011;7797;51.428;6.756;2024-03-29T08:29:41;4.20;;;1.63;;
15398;SDS011;7797;51.428;6.756;2024-03-29T08:32:07;2.23;;;1.70;;
15398;SDS011;7797;51.428;6.756;2024-03-29T08:34:36;2.37;;;1.77;;
15398;SDS011;7797;51.428;6.756;2024-03-29T08:37:01;1.93;;;1.50;;
15398;SDS011;7797;51.428;6.756;2024-03-29T08:39:30;2.97;;;1.60;;
15398;SDS011;7797;51.428;6.756;2024-03-29T08:41:57;5.03;;;1.70;;
15398;SDS011;7797;51.428;6.756;2024-03-29T08:44:24;1.70;;;1.60;;
15398;SDS011;7797;51.428;6.756;2024-03-29T08:46:50;2.37;;;1.47;;
15398;SDS011;7797;51.428;6.756;2024-03-29T08:49:16;1.67;;;1.57;;
15398;SDS011;7797;51.428;6.756;2024-03-29T08:51:42;3.67;;;1.80;;
15398;SDS011;7797;51.428;6.756;2024-03-29T08:54:07;1.77;;;1.67;;
15398;SDS011;7797;51.428;6.756;2024-03-29T08:56:33;1.90;;;1.70;;
15398;SDS011;7797;51.428;6.756;2024-03-29T08:59:05;3.20;;;1.73;;
15398;SDS011;7797;51.428;6.756;2024-03-29T09:01:38;1.80;;;1.70;;
15398;SDS011;7797;51.428;6.756;2024-03-29T09:04:06;2.53;;;1.50;;
15398;SDS011;7797;51.428;6.756;2024-03-29T09:06:39;1.90;;;1.80;;
15398;SDS011;7797;51.428;6.756;2024-03-29T09:09:05;2.83;;;1.70;;
15398;SDS011;7797;51.428;6.756;2024-03-29T09:11:31;3.57;;;1.83;;
15398;SDS011;7797;51.428;6.756;2024-03-29T09:13:57;3.53;;;1.90;;
15398;SDS011;7797;51.428;6.756;2024-03-29T09:16:27;2.33;;;1.67;;
15398;SDS011;7797;51.428;6.756;2024-03-29T09:18:56;2.30;;;1.83;;
15398;SDS011;7797;51.428;6.756;2024-03-29T09:21:22;2.17;;;1.83;;
15398;SDS011;7797;51.428;6.756;2024-03-29T09:23:47;3.53;;;1.90;;
15398;SDS011;7797;51.428;6.756;2024-03-29T09:26:16;2.10;;;1.90;;
15398;SDS011;7797;51.428;6.756;2024-03-29T09:28:42;2.83;;;1.80;;
15398;SDS011;7797;51.428;6.756;2024-03-29T09:31:07;3.27;;;2.20;;
15398;SDS011;7797;51.428;6.756;2024-03-29T09:33:33;2.90;;;1.80;;
15398;SDS011;7797;51.428;6.756;2024-03-29T09:35:59;1.67;;;1.60;;
15398;SDS011;7797;51.428;6.756;2024-03-29T09:38:25;2.53;;;1.70;;
15398;SDS011;7797;51.428;6.756;2024-03-29T09:40:56;1.83;;;1.73;;
15398;SDS011;7797;51.428;6.756;2024-03-29T09:43:29;1.87;;;1.77;;
15398;SDS011;7797;51.428;6.756;2024-03-29T09:45:55;2.73;;;1.97;;
15398;SDS011;7797;51.428;6.756;2024-03-29T09:48:21;2.13;;;1.80;;
15398;SDS011;7797;51.428;6.756;2024-03-29T09:50:48;2.87;;;2.30;;
15398;SDS011;7797;51.428;6.756;2024-03-29T09:53:15;2.53;;;2.13;;
15398;SDS011;7797;51.428;6.756;2024-03-29T09:55:41;2.23;;;2.03;;
15398;SDS011;7797;51.428;6.756;2024-03-29T09:58:07;3.23;;;2.17;;
15398;SDS011;7797;51.428;6.756;2024-03-29T10:00:33;2.27;;;1.93;;
15398;SDS011;7797;51.428;6.756;2024-03-29T10:02:58;2.57;;;2.37;;
15398;SDS011;7797;51.428;6.756;2024-03-29T10:05:28;2.70;;;2.07;;
15398;SDS011;7797;51.428;6.756;2024-03-29T10:07:54;2.30;;;1.80;;
15398;SDS011;7797;51.428;6.756;2024-03-29T10:10:20;3.80;;;2.13;;
15398;SDS011;7797;51.428;6.756;2024-03-29T10:12:46;2.43;;;2.00;;
15398;SDS011;7797;51.428;6.756;2024-03-29T10:15:11;3.87;;;2.20;;
15398;SDS011;7797;51.428;6.756;2024-03-29T10:17:49;3.37;;;1.90;;
15398;SDS011;7797;51.428;6.756;2024-03-29T10:20:15;3.27;;;1.90;;
15398;SDS011;7797;51.428;6.756;2024-03-29T10:22:45;2.00;;;1.90;;
15398;SDS011;7797;51.428;6.756;2024-03-29T10:25:11;2.30;;;2.10;;
15398;SDS011;7797;51.428;6.756;2024-03-29T10:27:38;2.30;;;2.10;;
15398;SDS011;7797;51.428;6.756;2024-03-29T10:30:05;2.20;;;2.00;;
15398;SDS011;7797;51.428;6.756;2024-03-29T10:32:34;2.47;;;2.13;;
15398;SDS011;7797;51.428;6.756;2024-03-29T10:35:02;2.50;;;2.30;;
15398;SDS011;7797;51.428;6.756;2024-03-29T10:37:28;1.97;;;1.87;;
15398;SDS011;7797;51.428;6.756;2024-03-29T10:39:57;5.50;;;2.13;;
15398;SDS011;7797;51.428;6.756;2024-03-29T10:42:23;3.10;;;2.10;;
15398;SDS011;7797;51.428;6.756;2024-03-29T10:44:50;1.80;;;1.70;;
15398;SDS011;7797;51.428;6.756;2024-03-29T10:47:19;2.40;;;1.90;;
15398;SDS011;7797;51.428;6.756;2024-03-29T10:49:49;4.17;;;2.10;;
15398;SDS011;7797;51.428;6.756;2024-03-29T10:52:26;4.37;;;2.10;;
15398;SDS011;7797;51.428;6.756;2024-03-29T10:54:52;2.30;;;2.10;;
15398;SDS011;7797;51.428;6.756;2024-03-29T10:57:22;2.03;;;1.80;;
15398;SDS011;7797;51.428;6.756;2024-03-29T11:02:50;4.13;;;2.20;;
15398;SDS011;7797;51.428;6.756;2024-03-29T11:05:18;2.20;;;2.00;;
15398;SDS011;7797;51.428;6.756;2024-03-29T11:07:44;2.40;;;2.20;;
15398;SDS011;7797;51.428;6.756;2024-03-29T11:10:13;2.93;;;1.97;;
15398;SDS011;7797;51.428;6.756;2024-03-29T11:15:51;2.00;;;1.90;;
15398;SDS011;7797;51.428;6.756;2024-03-29T11:18:17;2.33;;;1.70;;
15398;SDS011;7797;51.428;6.756;2024-03-29T11:20:47;2.20;;;1.50;;
15398;SDS011;7797;51.428;6.756;2024-03-29T11:23:18;1.93;;;1.70;;
15398;SDS011;7797;51.428;6.756;2024-03-29T11:25:45;1.97;;;1.53;;
15398;SDS011;7797;51.428;6.756;2024-03-29T11:28:12;1.80;;;1.40;;
15398;SDS011;7797;51.428;6.756;2024-03-29T11:30:43;1.53;;;1.40;;
15398;SDS011;7797;51.428;6.756;2024-03-29T11:33:30;1.97;;;1.83;;
15398;SDS011;7797;51.428;6.756;2024-03-29T11:36:00;1.40;;;1.30;;
15398;SDS011;7797;51.428;6.756;2024-03-29T11:38:33;1.67;;;1.47;;
15398;SDS011;7797;51.428;6.756;2024-03-29T11:41:03;2.40;;;1.23;;
15398;SDS011;7797;51.428;6.756;2024-03-29T11:43:33;2.00;;;1.30;;
15398;SDS011;7797;51.428;6.756;2024-03-29T11:46:00;1.30;;;1.20;;
15398;SDS011;7797;51.428;6.756;2024-03-29T11:48:28;1.40;;;1.30;;
15398;SDS011;7797;51.428;6.756;2024-03-29T11:50:54;2.23;;;1.40;;
15398;SDS011;7797;51.428;6.756;2024-03-29T11:53:20;1.50;;;1.17;;
15398;SDS011;7797;51.428;6.756;2024-03-29T11:55:46;1.20;;;1.10;;
15398;SDS011;7797;51.428;6.756;2024-03-29T11:58:14;2.80;;;1.00;;
15398;SDS011;7797;51.428;6.756;2024-03-29T12:00:40;0.90;;;0.90;;
15398;SDS011;7797;51.428;6.756;2024-03-29T12:03:09;0.80;;;0.80;;
15398;SDS011;7797;51.428;6.756;2024-03-29T12:05:35;0.60;;;0.60;;
15398;SDS011;7797;51.428;6.756;2024-03-29T12:08:01;1.33;;;1.20;;
15398;SDS011;7797;51.428;6.756;2024-03-29T12:10:27;0.73;;;0.73;;
15398;SDS011;7797;51.428;6.756;2024-03-29T12:12:56;1.20;;;1.00;;
15398;SDS011;7797;51.428;6.756;2024-03-29T12:15:27;0.90;;;0.90;;
15398;SDS011;7797;51.428;6.756;2024-03-29T12:17:57;1.27;;;0.60;;
15398;SDS011;7797;51.428;6.756;2024-03-29T12:20:23;0.70;;;0.70;;
15398;SDS011;7797;51.428;6.756;2024-03-29T12:22:49;0.90;;;0.90;;
15398;SDS011;7797;51.428;6.756;2024-03-29T12:25:15;0.90;;;0.73;;
15398;SDS011;7797;51.428;6.756;2024-03-29T12:27:44;1.70;;;0.80;;
15398;SDS011;7797;51.428;6.756;2024-03-29T12:30:11;2.40;;;0.80;;
15398;SDS011;7797;51.428;6.756;2024-03-29T12:32:38;0.80;;;0.80;;
15398;SDS011;7797;51.428;6.756;2024-03-29T12:35:07;0.70;;;0.70;;
15398;SDS011;7797;51.428;6.756;2024-03-29T12:37:34;0.73;;;0.70;;
15398;SDS011;7797;51.428;6.756;2024-03-29T12:40:00;1.17;;;0.83;;
15398;SDS011;7797;51.428;6.756;2024-03-29T12:42:28;1.03;;;0.90;;
15398;SDS011;7797;51.428;6.756;2024-03-29T12:44:55;0.60;;;0.60;;
15398;SDS011;7797;51.428;6.756;2024-03-29T12:47:21;2.20;;;0.87;;
15398;SDS011;7797;51.428;6.756;2024-03-29T12:49:47;0.60;;;0.60;;
15398;SDS011;7797;51.428;6.756;2024-03-29T12:52:13;1.07;;;0.97;;
15398;SDS011;7797;51.428;6.756;2024-03-29T12:54:39;1.23;;;0.70;;
15398;SDS011;7797;51.428;6.756;2024-03-29T12:57:05;0.70;;;0.70;;
15398;SDS011;7797;51.428;6.756;2024-03-29T12:59:34;0.70;;;0.70;;
15398;SDS011;7797;51.428;6.756;2024-03-29T13:02:00;0.73;;;0.67;;
15398;SDS011;7797;51.428;6.756;2024-03-29T13:04:26;0.90;;;0.70;;
15398;SDS011;7797;51.428;6.756;2024-03-29T13:06:51;1.03;;;0.83;;
15398;SDS011;7797;51.428;6.756;2024-03-29T13:09:17;1.80;;;0.93;;
15398;SDS011;7797;51.428;6.756;2024-03-29T13:11:43;0.77;;;0.77;;
15398;SDS011;7797;51.428;6.756;2024-03-29T13:14:08;1.60;;;0.60;;
15398;SDS011;7797;51.428;6.756;2024-03-29T13:16:34;2.73;;;1.13;;
15398;SDS011;7797;51.428;6.756;2024-03-29T13:19:00;0.80;;;0.80;;
15398;SDS011;7797;51.428;6.756;2024-03-29T13:21:25;1.40;;;0.90;;
15398;SDS011;7797;51.428;6.756;2024-03-29T13:23:51;1.03;;;0.90;;
15398;SDS011;7797;51.428;6.756;2024-03-29T13:26:17;0.67;;;0.67;;
15398;SDS011;7797;51.428;6.756;2024-03-29T13:28:42;1.53;;;0.77;;
15398;SDS011;7797;51.428;6.756;2024-03-29T13:31:08;0.77;;;0.70;;
15398;SDS011;7797;51.428;6.756;2024-03-29T13:33:33;0.60;;;0.60;;
15398;SDS011;7797;51.428;6.756;2024-03-29T13:35:59;2.17;;;1.13;;
15398;SDS011;7797;51.428;6.756;2024-03-29T13:38:25;1.17;;;0.97;;
15398;SDS011;7797;51.428;6.756;2024-03-29T13:40:52;1.50;;;0.90;;
15398;SDS011;7797;51.428;6.756;2024-03-29T13:43:18;1.37;;;1.27;;
15398;SDS011;7797;51.428;6.756;2024-03-29T13:45:44;1.10;;;0.80;;
15398;SDS011;7797;51.428;6.756;2024-03-29T13:48:10;0.70;;;0.70;;
15398;SDS011;7797;51.428;6.756;2024-03-29T13:50:35;1.10;;;0.70;;
15398;SDS011;7797;51.428;6.756;2024-03-29T13:53:01;2.17;;;1.20;;
15398;SDS011;7797;51.428;6.756;2024-03-29T13:55:26;1.00;;;1.00;;
15398;SDS011;7797;51.428;6.756;2024-03-29T13:57:53;0.77;;;0.77;;
15398;SDS011;7797;51.428;6.756;2024-03-29T14:00:20;1.43;;;1.00;;
15398;SDS011;7797;51.428;6.756;2024-03-29T14:02:46;3.17;;;0.90;;
15398;SDS011;7797;51.428;6.756;2024-03-29T14:05:12;1.67;;;1.00;;
15398;SDS011;7797;51.428;6.756;2024-03-29T14:07:43;1.43;;;1.03;;
15398;SDS011;7797;51.428;6.756;2024-03-29T14:10:09;1.33;;;1.20;;
15398;SDS011;7797;51.428;6.756;2024-03-29T14:12:34;1.77;;;1.40;;
15398;SDS011;7797;51.428;6.756;2024-03-29T14:15:00;1.43;;;1.30;;
15398;SDS011;7797;51.428;6.756;2024-03-29T14:17:26;1.10;;;1.07;;
15398;SDS011;7797;51.428;6.756;2024-03-29T14:19:53;1.23;;;1.10;;
15398;SDS011;7797;51.428;6.756;2024-03-29T14:22:19;0.93;;;0.83;;
15398;SDS011;7797;51.428;6.756;2024-03-29T14:24:45;1.90;;;0.90;;
15398;SDS011;7797;51.428;6.756;2024-03-29T14:27:11;1.53;;;0.77;;
15398;SDS011;7797;51.428;6.756;2024-03-29T14:29:38;2.00;;;0.97;;
15398;SDS011;7797;51.428;6.756;2024-03-29T14:32:04;1.33;;;0.90;;
15398;SDS011;7797;51.428;6.756;2024-03-29T14:34:30;1.07;;;0.97;;
15398;SDS011;7797;51.428;6.756;2024-03-29T14:37:03;0.77;;;0.77;;
15398;SDS011;7797;51.428;6.756;2024-03-29T14:39:28;1.17;;;1.07;;
15398;SDS011;7797;51.428;6.756;2024-03-29T14:41:54;1.40;;;0.90;;
15398;SDS011;7797;51.428;6.756;2024-03-29T14:44:20;0.80;;;0.80;;
15398;SDS011;7797;51.428;6.756;2024-03-29T14:46:46;1.00;;;1.00;;
15398;SDS011;7797;51.428;6.756;2024-03-29T14:49:13;0.70;;;0.50;;
15398;SDS011;7797;51.428;6.756;2024-03-29T14:51:39;0.73;;;0.73;;
15398;SDS011;7797;51.428;6.756;2024-03-29T14:54:05;1.37;;;0.80;;
15398;SDS011;7797;51.428;6.756;2024-03-29T14:56:32;2.20;;;1.20;;
15398;SDS011;7797;51.428;6.756;2024-03-29T14:59:00;1.53;;;1.43;;
15398;SDS011;7797;51.428;6.756;2024-03-29T15:01:26;0.87;;;0.87;;
15398;SDS011;7797;51.428;6.756;2024-03-29T15:03:52;1.50;;;1.40;;